Latest Coastal Weather Observations for Arlington Reef

IDQ60701

Issued at 12:55 pm EST Wednesday 30 July 2014 (issued every 10 minutes, with the page automatically refreshed every 10 minutes)

About coastal observations | Map of coastal stations | Coastal observations for QLD | Marine services | Other Formats
Station Details ID: 200879 Name: ARLINGTON REEF Lat: -16.72 Lon: 146.11 Height: 0.0 m
Data from the previous 72 hours. | See also: Recent months at Arlington Reef
Date/Time
EST
Temp

°C
Wind Pressure Rain
since 9am
mm
Weather Cloud Vis
km
Sea
Height
m
Swell
Dir
 
Speed
knots
Gust
knots
hPa Trend Height
m
Period
s
Dir
30/12:30pm - SE 15 18 1018.1 - - - - - - - - -
30/12:00pm - SSE 14 16 1018.6 - - - - - - - - -
30/11:30am - SE 14 16 1019.0 - - - - - - - - -
30/11:00am - SE 13 15 1019.4 - - - - - - - - -
30/10:30am - SE 13 16 1019.6 - - - - - - - - -
30/10:00am - ESE 16 19 1019.7 - - - - - - - - -
30/09:30am - ESE 16 18 1019.6 - - - - - - - - -
30/09:00am - ESE 16 19 1019.6 - - - - - - - - -
30/08:30am - SE 14 17 1019.4 - - - - - - - - -
30/08:00am - SE 16 18 1019.3 - - - - - - - - -
30/07:30am - ESE 13 16 1019.1 - - - - - - - - -
30/07:00am - S 15 19 1018.8 - - - - - - - - -
30/06:30am - S 13 16 1018.4 - - - - - - - - -
30/06:00am - S 15 18 1017.9 - - - - - - - - -
30/05:30am - S 14 16 1017.9 - - - - - - - - -
30/05:00am - S 12 14 1017.9 - - - - - - - - -
30/04:30am - S 8 9 1017.9 - - - - - - - - -
30/04:00am - SSE 10 12 1017.8 - - - - - - - - -
30/03:30am - S 14 16 1017.7 - - - - - - - - -
30/03:00am - S 14 16 1017.8 - - - - - - - - -
30/02:30am - S 13 15 1018.0 - - - - - - - - -
30/02:00am - S 10 12 1018.3 - - - - - - - - -
30/01:30am - S 11 13 1018.7 - - - - - - - - -
30/01:00am - SSE 12 14 1019.0 - - - - - - - - -
30/12:30am - SE 12 15 1019.1 - - - - - - - - -
30/12:00am - SSE 15 18 1019.2 - - - - - - - - -
 
Date/Time
EST
Temp

°C
Wind Pressure Rain
since 9am
mm
Weather Cloud Vis
km
Sea
Height
m
Swell
Dir
 
Speed
knots
Gust
knots
hPa Trend Height
m
Period
s
Dir
29/11:30pm - SE 12 16 1019.3 - - - - - - - - -
29/11:00pm - S 15 18 1019.5 - - - - - - - - -
29/10:30pm - S 16 18 1019.5 - - - - - - - - -
29/10:00pm - S 15 17 1019.5 - - - - - - - - -
29/09:30pm - S 17 20 1019.3 - - - - - - - - -
29/09:00pm - S 16 19 1019.2 - - - - - - - - -
29/08:30pm - S 15 18 1019.1 - - - - - - - - -
29/08:00pm - SSE 15 18 1019.0 - - - - - - - - -
29/07:30pm - SSE 15 18 1018.8 - - - - - - - - -
29/07:00pm - SSE 15 18 1018.5 - - - - - - - - -
29/06:30pm - S 13 15 1018.3 - - - - - - - - -
29/06:00pm - S 12 16 1018.3 - - - - - - - - -
29/05:30pm - S 13 16 1018.0 - - - - - - - - -
29/05:00pm - S 13 17 1017.8 - - - - - - - - -
29/04:30pm - S 14 16 1017.6 - - - - - - - - -
29/04:00pm - S 13 16 1017.6 - - - - - - - - -
29/03:30pm - SSE 13 16 1017.6 - - - - - - - - -
29/03:00pm - SSE 14 16 1017.8 - - - - - - - - -
29/02:30pm - S 14 17 1018.0 - - - - - - - - -
29/02:00pm - SSE 15 18 1018.5 - - - - - - - - -
29/01:30pm - SSE 15 18 1018.9 - - - - - - - - -
29/01:00pm - SSE 15 18 1019.2 - - - - - - - - -
29/12:30pm - SSE 15 18 1019.5 - - - - - - - - -
29/12:00pm - SSE 15 18 1019.9 - - - - - - - - -
29/11:30am - SSE 16 19 1020.1 - - - - - - - - -
29/11:00am - SSE 16 18 1020.4 - - - - - - - - -
29/10:30am - SSE 17 20 1020.6 - - - - - - - - -
29/10:00am - SSE 18 20 1020.8 - - - - - - - - -
29/09:30am - SSE 18 21 1020.7 - - - - - - - - -
29/09:00am - SSE 19 22 1020.5 - - - - - - - - -
29/08:30am - SE 19 23 1020.1 - - - - - - - - -
29/08:00am - SE 19 22 1019.9 - - - - - - - - -
29/07:30am - SE 19 22 1019.5 - - - - - - - - -
29/07:00am - SE 19 22 1019.2 - - - - - - - - -
29/06:30am - SE 18 21 1018.9 - - - - - - - - -
29/06:00am - SE 18 20 1018.5 - - - - - - - - -
29/05:30am - SE 20 23 1018.2 - - - - - - - - -
29/05:00am - SSE 17 20 1018.0 - - - - - - - - -
29/04:30am - SE 15 18 1017.9 - - - - - - - - -
29/04:00am - SE 15 19 1017.9 - - - - - - - - -
29/03:30am - SE 13 16 1018.1 - - - - - - - - -
29/03:00am - SE 13 17 1018.1 - - - - - - - - -
29/02:30am - SE 13 15 1018.3 - - - - - - - - -
29/02:00am - SE 13 15 1018.5 - - - - - - - - -
29/01:30am - ESE 14 16 1018.9 - - - - - - - - -
29/01:00am - SE 13 16 1019.2 - - - - - - - - -
29/12:30am - SE 13 15 1019.3 - - - - - - - - -
29/12:00am - SE 13 16 1019.3 - - - - - - - - -
 
Date/Time
EST
Temp

°C
Wind Pressure Rain
since 9am
mm
Weather Cloud Vis
km
Sea
Height
m
Swell
Dir
 
Speed
knots
Gust
knots
hPa Trend Height
m
Period
s
Dir
28/11:30pm - SE 13 16 1019.4 - - - - - - - - -
28/11:00pm - SE 14 16 1019.4 - - - - - - - - -
28/10:30pm - ESE 15 19 1019.4 - - - - - - - - -
28/10:00pm - SE 16 19 1019.4 - - - - - - - - -
28/09:30pm - SE 16 19 1019.5 - - - - - - - - -
28/09:00pm - SE 17 20 1019.3 - - - - - - - - -
28/08:30pm - SE 15 19 1019.2 - - - - - - - - -
28/08:00pm - SE 17 20 1019.1 - - - - - - - - -
28/07:30pm - SE 16 20 1018.9 - - - - - - - - -
28/07:00pm - SE 15 17 1018.6 - - - - - - - - -
28/06:30pm - SE 16 18 1018.2 - - - - - - - - -
28/06:00pm - SE 15 17 1018.0 - - - - - - - - -
28/05:30pm - ESE 14 17 1017.7 - - - - - - - - -
28/05:00pm - SE 13 16 1017.6 - - - - - - - - -
28/04:30pm - ESE 14 16 1017.6 - - - - - - - - -
28/04:00pm - SE 13 14 1017.7 - - - - - - - - -
28/03:30pm - ESE 13 15 1017.6 - - - - - - - - -
28/03:00pm - ESE 14 16 1017.7 - - - - - - - - -
28/02:30pm - SSE 12 14 1017.9 - - - - - - - - -
28/02:00pm - ESE 15 17 1018.1 - - - - - - - - -
28/01:30pm - SSE 13 14 1018.5 - - - - - - - - -
28/01:00pm - ESE 16 18 1018.9 - - - - - - - - -
28/12:30pm - SE 16 19 1019.1 - - - - - - - - -
28/12:00pm - ESE 16 19 1019.4 - - - - - - - - -
28/11:30am - ESE 14 19 1019.8 - - - - - - - - -
28/11:00am - ESE 15 19 1020.1 - - - - - - - - -
28/10:30am - ESE 17 21 1020.2 - - - - - - - - -
28/10:00am - ESE 17 21 1020.3 - - - - - - - - -
28/09:30am - SE 16 19 1020.4 - - - - - - - - -
28/09:00am - ESE 18 23 1020.4 - - - - - - - - -
28/08:30am - SE 20 25 1019.9 - - - - - - - - -
28/08:00am - SE 18 21 1019.5 - - - - - - - - -
28/07:30am - SE 15 18 1019.2 - - - - - - - - -
28/07:00am - SE 15 18 1018.8 - - - - - - - - -
28/06:30am - SE 17 21 1018.3 - - - - - - - - -
28/06:00am - SE 20 22 1018.0 - - - - - - - - -
28/05:30am - SE 19 23 1017.9 - - - - - - - - -
28/05:00am - SE 19 22 1017.9 - - - - - - - - -
28/04:30am - SE 15 19 1017.8 - - - - - - - - -
28/04:00am - SE 17 22 1017.8 - - - - - - - - -
28/03:30am - SE 17 20 1017.9 - - - - - - - - -
28/03:00am - ESE 21 29 1018.3 - - - - - - - - -
28/02:53am - ESE 26 29 1018.0 - - - - - - - - -
28/02:30am - SSE 17 22 1018.3 - - - - - - - - -
28/02:00am - SE 16 20 1018.4 - - - - - - - - -
28/01:30am - SE 17 20 1018.7 - - - - - - - - -
28/01:00am - SE 17 19 1019.0 - - - - - - - - -
28/12:30am - SE 17 20 1019.4 - - - - - - - - -
28/12:00am - ESE 18 22 1019.7 - - - - - - - - -
 
Date/Time
EST
Temp

°C
Wind Pressure Rain
since 9am
mm
Weather Cloud Vis
km
Sea
Height
m
Swell
Dir
 
Speed
knots
Gust
knots
hPa Trend Height
m
Period
s
Dir
27/11:30pm - SE 18 21 1019.9 - - - - - - - - -
27/11:00pm - ESE 17 20 1020.2 - - - - - - - - -
27/10:30pm - SE 18 21 1020.4 - - - - - - - - -
27/10:00pm - ESE 18 22 1020.7 - - - - - - - - -
27/09:30pm - ESE 20 23 1020.8 - - - - - - - - -
27/09:00pm - ESE 20 23 1020.6 - - - - - - - - -
27/08:30pm - ESE 19 23 1020.4 - - - - - - - - -
27/08:00pm - ESE 20 23 1020.1 - - - - - - - - -
27/07:30pm - SE 20 24 1019.7 - - - - - - - - -
27/07:00pm - ESE 19 22 1019.3 - - - - - - - - -
27/06:30pm - ESE 17 20 1019.0 - - - - - - - - -
27/06:00pm - SE 18 21 1018.7 - - - - - - - - -
27/05:30pm - SE 16 20 1018.3 - - - - - - - - -
27/05:00pm - SE 18 21 1018.2 - - - - - - - - -
27/04:30pm - SE 17 22 1018.0 - - - - - - - - -
27/04:00pm - SE 17 21 1017.8 - - - - - - - - -
27/03:30pm - SE 19 24 1017.6 - - - - - - - - -
27/03:00pm - SE 19 22 1017.7 - - - - - - - - -
27/02:30pm - SE 19 22 1017.8 - - - - - - - - -
27/02:00pm - SE 19 22 1018.1 - - - - - - - - -
27/01:30pm - SE 19 23 1018.4 - - - - - - - - -
27/01:00pm - SE 20 24 1018.6 - - - - - - - - -

Other Formats:

Comma delimited format used in spreadsheet applications
http://www.bom.gov.au/fwo/IDQ60701/IDQ60701.94284.axf

JavaScript Object Notation format (JSON) in row-major order
http://www.bom.gov.au/fwo/IDQ60701/IDQ60701.94284.json